TDPD/DOM METAR and TAF weather

Enter ICAO airport designator
Station Type Date Time Source
TDPD METAR 2021/05/14 13:00 UTC NOAA

TDPD 141300Z 08006G21KT 9999 5000W VCSH FEW010 BKN015 25/24 Q1017


Station Type Date Time Source
TDPD Decoded METAR 2021/05/14 13:00 UTC NOAA

Melville Hall Airport, Dominica (TDPD) 15-32N 061-18W 14M
May 14, 2021 - 09:00 AM EDT / 2021.05.14 1300 UTC
Wind: from the E (080 degrees) at 7 MPH (6 KT) gusting to 24 MPH (21 KT):0
Visibility: greater than 7 mile(s):0
Sky conditions: mostly cloudy
Weather: showers in the vicinity
Temperature: 77 F (25 C)
Dew Point: 75 F (24 C)
Relative Humidity: 94%
Pressure (altimeter): 30.03 in. Hg (1017 hPa)
ob: TDPD 141300Z 08006G21KT 9999 5000W VCSH FEW010 BKN015 25/24 Q1017
cycle: 13

Station Type Date Time Source
TDPD TAF 2021/05/14 12:39 UTC NOAA

TAF TDPD 141100Z 1412/1512 30003KT 9999 SCT018 PROB40
TEMPO 1415/1422 SHRA BKN015

Example: see airport list